Check out our new BloomSky Weather System.

Active alerts

Houston, TX
  Details for Houston, TX Dense Fog Advisory


Thunder radar  blitzortung!


Rain radar more information rain snow radar


Visit our other weather sites:

Template documentation
and downloads

And another site



Weather Underground History page Text

Daily Summary for February 1, 2017 Units:  English    Metric   Both
« Previous Day
Next Day »
Daily Weekly Monthly Yearly Custom
  High: Low: Average:
Temperature: 81.1 °F 56.7 °F 68.9 °F
Dew Point: 66.7 °F 54.3 °F 62.3 °F
Humidity: 98 % 53 % 82 %
Wind Speed: 13.0 mph 0.0 mph 4 mph
Wind Gust: 20.0 mph - -
Wind:- - South
Pressure: 30.05 in 29.92 in -
Precipitation: 0.00 in    
Historical Graphs
 
 
Tabular Data for February 1, 2017
Time Temperature Dew Point Pressure Wind Wind Speed Wind Gust Humidity Rainfall Rate (Hourly)
00:01 58.5 °F 55.2 °F 30.01 in Calm   1.0 mph 89 % 0.00 in
00:06 58.3 °F 55.0 °F 30.01 in Calm   1.0 mph 89 % 0.00 in
00:11 57.9 °F 54.7 °F 30.01 in Calm   1.0 mph 89 % 0.00 in
00:16 57.6 °F 54.3 °F 30.01 in Calm     89 % 0.00 in
00:21 57.2 °F 54.3 °F 30.00 in Calm     90 % 0.00 in
00:26 57.0 °F 54.5 °F 30.00 in Calm     91 % 0.00 in
00:31 57.0 °F 54.5 °F 30.00 in Calm     91 % 0.00 in
00:36 56.8 °F 54.3 °F 30.00 in Calm     91 % 0.00 in
00:41 56.7 °F 54.3 °F 30.00 in Calm     92 % 0.00 in
00:46 56.8 °F 54.5 °F 30.00 in Calm   1.0 mph 92 % 0.00 in
00:51 57.0 °F 55.0 °F 30.00 in Calm   1.0 mph 93 % 0.00 in
00:56 57.4 °F 55.4 °F 30.00 in Calm   1.0 mph 93 % 0.00 in
01:01 57.6 °F 55.8 °F 30.00 in Calm   1.0 mph 94 % 0.00 in
01:06 58.1 °F 56.3 °F 30.00 in Calm   2.0 mph 94 % 0.00 in
01:11 58.3 °F 56.5 °F 30.00 in Calm   2.0 mph 94 % 0.00 in
01:16 58.5 °F 56.7 °F 30.00 in SE 1.0 mph 2.0 mph 94 % 0.00 in
01:21 58.5 °F 56.7 °F 30.00 in SE 1.0 mph 1.0 mph 94 % 0.00 in
01:26 58.6 °F 56.8 °F 30.00 in Calm   1.0 mph 94 % 0.00 in
01:31 58.6 °F 56.8 °F 30.00 in SE 1.0 mph 2.0 mph 94 % 0.00 in
01:36 58.8 °F 57.0 °F 29.99 in SE 1.0 mph 2.0 mph 94 % 0.00 in
01:41 58.8 °F 57.0 °F 29.99 in ESE 1.0 mph 2.0 mph 94 % 0.00 in
01:46 59.0 °F 57.2 °F 29.99 in Calm   2.0 mph 94 % 0.00 in
01:51 59.0 °F 57.2 °F 29.99 in SE 1.0 mph 3.0 mph 94 % 0.00 in
01:56 59.0 °F 57.2 °F 29.99 in Calm   3.0 mph 94 % 0.00 in
02:01 59.0 °F 57.6 °F 29.99 in SE 1.0 mph 3.0 mph 95 % 0.00 in
02:06 59.2 °F 57.7 °F 29.99 in SE 1.0 mph 2.0 mph 95 % 0.00 in
02:11 59.2 °F 57.7 °F 29.99 in SSE 1.0 mph 2.0 mph 95 % 0.00 in
02:17 59.2 °F 57.7 °F 29.99 in SSE 2.0 mph 3.0 mph 95 % 0.00 in
02:22 59.5 °F 58.1 °F 29.99 in Calm   3.0 mph 95 % 0.00 in
02:27 59.4 °F 57.9 °F 29.98 in South 1.0 mph 3.0 mph 95 % 0.00 in
02:32 59.5 °F 58.1 °F 29.98 in South 1.0 mph 4.0 mph 95 % 0.00 in
02:37 59.7 °F 58.3 °F 29.98 in SE 1.0 mph 4.0 mph 95 % 0.00 in
02:42 59.7 °F 58.3 °F 29.98 in SSE 1.0 mph 4.0 mph 95 % 0.00 in
02:47 59.7 °F 58.3 °F 29.98 in SSE 1.0 mph 4.0 mph 95 % 0.00 in
02:52 59.7 °F 58.3 °F 29.98 in SSE 2.0 mph 4.0 mph 95 % 0.00 in
02:57 59.9 °F 58.5 °F 29.98 in Calm   3.0 mph 95 % 0.00 in
03:02 59.7 °F 58.3 °F 29.98 in SSE 1.0 mph 3.0 mph 95 % 0.00 in
03:07 59.7 °F 58.3 °F 29.98 in SE 2.0 mph 2.0 mph 95 % 0.00 in
03:12 59.7 °F 58.3 °F 29.98 in SE 1.0 mph 4.0 mph 95 % 0.00 in
03:17 59.7 °F 58.3 °F 29.98 in SE 1.0 mph 4.0 mph 95 % 0.00 in
03:22 59.7 °F 58.3 °F 29.98 in Calm   4.0 mph 95 % 0.00 in
03:27 59.5 °F 58.1 °F 29.98 in ESE 2.0 mph 2.0 mph 95 % 0.00 in
03:32 59.5 °F 58.1 °F 29.98 in SE 1.0 mph 2.0 mph 95 % 0.00 in
03:37 59.5 °F 58.1 °F 29.98 in SE 1.0 mph 3.0 mph 95 % 0.00 in
03:42 59.4 °F 57.9 °F 29.98 in Calm   3.0 mph 95 % 0.00 in
03:47 59.4 °F 57.9 °F 29.98 in Calm   3.0 mph 95 % 0.00 in
03:52 59.4 °F 57.9 °F 29.98 in Calm   3.0 mph 95 % 0.00 in
03:57 59.2 °F 57.7 °F 29.98 in SE 1.0 mph 2.0 mph 95 % 0.00 in
04:02 59.2 °F 57.7 °F 29.98 in Calm   2.0 mph 95 % 0.00 in
04:07 59.2 °F 57.7 °F 29.99 in SE 1.0 mph 2.0 mph 95 % 0.00 in
04:12 59.0 °F 57.6 °F 29.99 in Calm   2.0 mph 95 % 0.00 in
04:17 59.0 °F 57.6 °F 29.99 in Calm   2.0 mph 95 % 0.00 in
04:22 58.8 °F 57.4 °F 29.99 in Calm   2.0 mph 95 % 0.00 in
04:27 58.6 °F 57.2 °F 29.98 in Calm   2.0 mph 95 % 0.00 in
04:32 58.6 °F 57.6 °F 29.98 in SSE 1.0 mph 2.0 mph 96 % 0.00 in
04:37 58.6 °F 57.6 °F 29.98 in SSE 1.0 mph 2.0 mph 96 % 0.00 in
04:42 58.8 °F 57.7 °F 29.98 in SE 1.0 mph 3.0 mph 96 % 0.00 in
04:47 58.8 °F 57.7 °F 29.98 in SSE 1.0 mph 3.0 mph 96 % 0.00 in
04:52 59.0 °F 57.9 °F 29.98 in Calm   3.0 mph 96 % 0.00 in
04:57 59.2 °F 58.1 °F 29.99 in Calm   2.0 mph 96 % 0.00 in
05:02 59.0 °F 57.9 °F 29.99 in Calm   3.0 mph 96 % 0.00 in
05:07 59.0 °F 57.9 °F 29.99 in SE 1.0 mph 3.0 mph 96 % 0.00 in
05:12 58.8 °F 57.7 °F 29.99 in SE 1.0 mph 3.0 mph 96 % 0.00 in
05:17 58.8 °F 57.9 °F 29.99 in SSW 1.0 mph 2.0 mph 97 % 0.00 in
05:22 59.0 °F 58.1 °F 29.99 in SSE 2.0 mph 2.0 mph 97 % 0.00 in
05:27 59.0 °F 58.1 °F 29.99 in SE 1.0 mph 2.0 mph 97 % 0.00 in
05:32 59.0 °F 58.1 °F 29.99 in ESE 1.0 mph 2.0 mph 97 % 0.00 in
05:37 59.2 °F 58.3 °F 29.98 in SSE 2.0 mph 3.0 mph 97 % 0.00 in
05:42 59.2 °F 58.3 °F 29.99 in SSE 1.0 mph 3.0 mph 97 % 0.00 in
05:47 59.4 °F 58.5 °F 29.99 in Calm   3.0 mph 97 % 0.00 in
05:52 59.4 °F 58.5 °F 29.99 in SE 2.0 mph 4.0 mph 97 % 0.00 in
05:57 59.5 °F 58.6 °F 29.99 in SE 2.0 mph 4.0 mph 97 % 0.00 in
06:02 59.5 °F 58.6 °F 29.99 in South 2.0 mph 4.0 mph 97 % 0.00 in
06:07 59.7 °F 58.8 °F 29.99 in SE 1.0 mph 4.0 mph 97 % 0.00 in
06:12 59.7 °F 58.8 °F 29.99 in SSW 3.0 mph 4.0 mph 97 % 0.00 in
06:17 59.7 °F 58.8 °F 29.99 in SSE 1.0 mph 4.0 mph 97 % 0.00 in
06:22 59.7 °F 58.8 °F 29.99 in SSE 1.0 mph 4.0 mph 97 % 0.00 in
06:27 59.9 °F 59.0 °F 29.99 in SE 1.0 mph 4.0 mph 97 % 0.00 in
06:32 59.9 °F 59.0 °F 29.99 in Calm   4.0 mph 97 % 0.00 in
06:37 60.1 °F 59.2 °F 29.99 in SSE 2.0 mph 4.0 mph 97 % 0.00 in
06:42 60.1 °F 59.5 °F 30.00 in SSE 1.0 mph 4.0 mph 98 % 0.00 in
06:47 60.3 °F 59.4 °F 30.00 in SSE 1.0 mph 5.0 mph 97 % 0.00 in
06:52 60.4 °F 59.9 °F 29.99 in South 2.0 mph 5.0 mph 98 % 0.00 in
06:57 60.6 °F 60.1 °F 29.99 in SSE 3.0 mph 7.0 mph 98 % 0.00 in
07:02 60.8 °F 60.3 °F 29.99 in SSE 2.0 mph 7.0 mph 98 % 0.00 in
07:07 61.0 °F 60.4 °F 29.99 in South 3.0 mph 7.0 mph 98 % 0.00 in
07:12 61.2 °F 60.6 °F 29.99 in SSE 2.0 mph 6.0 mph 98 % 0.00 in
07:17 61.3 °F 60.8 °F 30.00 in SE 4.0 mph 5.0 mph 98 % 0.00 in
07:22 61.5 °F 61.0 °F 30.00 in South 8.0 mph 8.0 mph 98 % 0.00 in
07:27 61.7 °F 61.2 °F 30.00 in SSW 5.0 mph 8.0 mph 98 % 0.00 in
07:32 61.9 °F 61.3 °F 30.00 in South 3.0 mph 8.0 mph 98 % 0.00 in
07:37 62.1 °F 61.5 °F 30.00 in SSE 2.0 mph 8.0 mph 98 % 0.00 in
07:42 62.1 °F 61.5 °F 30.00 in SSE 3.0 mph 7.0 mph 98 % 0.00 in
07:47 62.2 °F 61.7 °F 30.00 in South 3.0 mph 7.0 mph 98 % 0.00 in
07:52 62.4 °F 61.9 °F 30.00 in SE 2.0 mph 7.0 mph 98 % 0.00 in
07:57 62.6 °F 62.1 °F 30.00 in SSE 2.0 mph 7.0 mph 98 % 0.00 in
08:02 63.0 °F 62.4 °F 30.00 in SSE 2.0 mph 7.0 mph 98 % 0.00 in
08:07 63.1 °F 62.6 °F 30.01 in SSE 4.0 mph 7.0 mph 98 % 0.00 in
08:12 63.3 °F 62.4 °F 30.01 in South 4.0 mph 6.0 mph 97 % 0.00 in
08:17 63.7 °F 62.8 °F 30.01 in SSE 6.0 mph 9.0 mph 97 % 0.00 in
08:22 63.9 °F 63.0 °F 30.01 in SSE 6.0 mph 9.0 mph 97 % 0.00 in
08:27 64.0 °F 63.1 °F 30.01 in South 6.0 mph 9.0 mph 97 % 0.00 in
08:32 64.6 °F 63.7 °F 30.01 in SSW 3.0 mph 8.0 mph 97 % 0.00 in
08:37 65.1 °F 64.2 °F 30.02 in South 3.0 mph 9.0 mph 97 % 0.00 in
08:42 65.5 °F 64.2 °F 30.02 in SE 2.0 mph 9.0 mph 96 % 0.00 in
08:47 66.0 °F 64.8 °F 30.02 in SE 5.0 mph 9.0 mph 96 % 0.00 in
08:52 66.4 °F 64.9 °F 30.02 in SSE 7.0 mph 9.0 mph 95 % 0.00 in
08:57 66.6 °F 65.1 °F 30.02 in SSE 6.0 mph 11.0 mph 95 % 0.00 in
09:02 66.9 °F 65.1 °F 30.02 in SSW 3.0 mph 11.0 mph 94 % 0.00 in
09:07 67.5 °F 65.3 °F 30.02 in SSW 6.0 mph 11.0 mph 93 % 0.00 in
09:12 67.8 °F 65.5 °F 30.02 in South 7.0 mph 9.0 mph 92 % 0.00 in
09:18 68.4 °F 65.7 °F 30.02 in SE 3.0 mph 9.0 mph 91 % 0.00 in
09:23 68.7 °F 66.0 °F 30.03 in SE 3.0 mph 9.0 mph 91 % 0.00 in
09:28 69.6 °F 66.6 °F 30.03 in SSE 4.0 mph 9.0 mph 90 % 0.00 in
09:33 70.0 °F 66.2 °F 30.03 in SE 4.0 mph 11.0 mph 88 % 0.00 in
09:38 70.2 °F 66.0 °F 30.03 in SSE 2.0 mph 11.0 mph 87 % 0.00 in
09:43 70.9 °F 66.7 °F 30.03 in South 6.0 mph 11.0 mph 87 % 0.00 in
09:48 71.1 °F 66.4 °F 30.03 in SSW 8.0 mph 11.0 mph 85 % 0.00 in
09:53 71.2 °F 66.6 °F 30.03 in SSE 1.0 mph 11.0 mph 85 % 0.00 in
09:58 71.4 °F 66.0 °F 30.03 in SSE 5.0 mph 13.0 mph 83 % 0.00 in
10:03 71.2 °F 65.5 °F 30.03 in South 4.0 mph 13.0 mph 82 % 0.00 in
10:08 71.6 °F 66.2 °F 30.03 in SE 7.0 mph 13.0 mph 83 % 0.00 in
10:13 72.1 °F 66.0 °F 30.03 in South 8.0 mph 12.0 mph 81 % 0.00 in
10:18 72.1 °F 65.7 °F 30.03 in SSW 2.0 mph 17.0 mph 80 % 0.00 in
10:23 72.3 °F 65.8 °F 30.03 in SSE 2.0 mph 17.0 mph 80 % 0.00 in
10:28 72.5 °F 66.0 °F 30.03 in WNW 5.0 mph 17.0 mph 80 % 0.00 in
10:33 73.0 °F 66.2 °F 30.03 in South 7.0 mph 14.0 mph 79 % 0.00 in
10:38 73.2 °F 66.0 °F 30.03 in SW 6.0 mph 11.0 mph 78 % 0.00 in
10:43 73.0 °F 65.8 °F 30.03 in SW 8.0 mph 12.0 mph 78 % 0.00 in
10:48 73.0 °F 65.8 °F 30.03 in South 8.0 mph 15.0 mph 78 % 0.00 in
10:53 73.2 °F 66.0 °F 30.03 in SSW 4.0 mph 15.0 mph 78 % 0.00 in
10:58 73.8 °F 65.3 °F 30.03 in SSW 8.0 mph 15.0 mph 75 % 0.00 in
11:03 73.9 °F 65.5 °F 30.03 in ESE 7.0 mph 14.0 mph 75 % 0.00 in
11:08 74.7 °F 65.8 °F 30.03 in SW 10.0 mph 14.0 mph 74 % 0.00 in
11:13 75.4 °F 65.7 °F 30.02 in SW 7.0 mph 15.0 mph 72 % 0.00 in
11:15 75.2 °F 65.5 °F 30.03 in SSW 10.0 mph 15.0 mph 72 % 0.00 in
11:20 75.6 °F 66.7 °F 30.02 in SSW 4.0 mph 15.0 mph 74 % 0.00 in
11:25 75.7 °F 65.7 °F 30.02 in South 4.0 mph 15.0 mph 71 % 0.00 in
11:30 75.4 °F 64.9 °F 30.02 in SSW 7.0 mph 15.0 mph 70 % 0.00 in
11:35 74.8 °F 64.8 °F 30.02 in SW 6.0 mph 15.0 mph 71 % 0.00 in
11:40 75.7 °F 64.8 °F 30.01 in SSW 3.0 mph 15.0 mph 69 % 0.00 in
11:45 76.3 °F 65.3 °F 30.01 in South 10.0 mph 14.0 mph 69 % 0.00 in
11:50 76.5 °F 65.1 °F 30.01 in SW 11.0 mph 17.0 mph 68 % 0.00 in
11:55 76.3 °F 64.9 °F 30.01 in South 9.0 mph 17.0 mph 68 % 0.00 in
12:00 76.1 °F 64.8 °F 30.00 in SSE 6.0 mph 17.0 mph 68 % 0.00 in
12:05 76.3 °F 65.3 °F 30.00 in SSE 9.0 mph 16.0 mph 69 % 0.00 in
12:10 77.2 °F 65.8 °F 29.99 in SSE 9.0 mph 17.0 mph 68 % 0.00 in
12:15 77.5 °F 65.7 °F 29.99 in SW 9.0 mph 17.0 mph 67 % 0.00 in
12:20 77.9 °F 64.8 °F 29.99 in SSE 11.0 mph 17.0 mph 64 % 0.00 in
12:25 78.1 °F 64.9 °F 29.98 in SSW 6.0 mph 17.0 mph 64 % 0.00 in
12:30 78.1 °F 64.4 °F 29.98 in SSW 7.0 mph 17.0 mph 63 % 0.00 in
12:35 77.5 °F 63.9 °F 29.98 in WSW 5.0 mph 16.0 mph 63 % 0.00 in
12:40 77.7 °F 64.6 °F 29.97 in South 5.0 mph 13.0 mph 64 % 0.00 in
12:45 78.3 °F 64.2 °F 29.97 in SSW 9.0 mph 14.0 mph 62 % 0.00 in
12:50 78.4 °F 63.9 °F 29.97 in South 11.0 mph 15.0 mph 61 % 0.00 in
12:55 79.0 °F 64.8 °F 29.97 in SSE 10.0 mph 15.0 mph 62 % 0.00 in
13:00 79.0 °F 64.4 °F 29.97 in SW 8.0 mph 16.0 mph 61 % 0.00 in
13:06 79.2 °F 65.5 °F 29.97 in SSW 8.0 mph 16.0 mph 63 % 0.00 in
13:11 79.3 °F 64.2 °F 29.96 in SSE 8.0 mph 16.0 mph 60 % 0.00 in
13:16 79.7 °F 64.6 °F 29.96 in SE 7.0 mph 13.0 mph 60 % 0.00 in
13:21 79.2 °F 64.6 °F 29.96 in South 10.0 mph 13.0 mph 61 % 0.00 in
13:26 79.0 °F 64.4 °F 29.95 in South 7.0 mph 16.0 mph 61 % 0.00 in
13:31 79.3 °F 63.3 °F 29.95 in SW 8.0 mph 18.0 mph 58 % 0.00 in
13:36 79.5 °F 63.0 °F 29.95 in SSE 10.0 mph 18.0 mph 57 % 0.00 in
13:41 79.5 °F 63.0 °F 29.94 in SE 7.0 mph 18.0 mph 57 % 0.00 in
13:46 80.1 °F 63.5 °F 29.94 in SW 13.0 mph 17.0 mph 57 % 0.00 in
13:51 80.2 °F 63.1 °F 29.94 in SSW 4.0 mph 17.0 mph 56 % 0.00 in
13:56 80.2 °F 63.7 °F 29.94 in SE 6.0 mph 17.0 mph 57 % 0.00 in
14:01 80.6 °F 64.4 °F 29.94 in SE 6.0 mph 15.0 mph 58 % 0.00 in
14:06 80.2 °F 63.1 °F 29.94 in SSW 4.0 mph 12.0 mph 56 % 0.00 in
14:11 80.1 °F 63.9 °F 29.94 in SSW 6.0 mph 12.0 mph 58 % 0.00 in
14:16 80.4 °F 63.9 °F 29.93 in SSW 8.0 mph 12.0 mph 57 % 0.00 in
14:21 80.1 °F 63.5 °F 29.93 in South 7.0 mph 14.0 mph 57 % 0.00 in
14:26 79.9 °F 63.3 °F 29.93 in South 6.0 mph 14.0 mph 57 % 0.00 in
14:31 79.9 °F 63.3 °F 29.93 in SSE 9.0 mph 14.0 mph 57 % 0.00 in
14:36 80.2 °F 63.1 °F 29.93 in SSE 9.0 mph 16.0 mph 56 % 0.00 in
14:41 80.4 °F 62.8 °F 29.93 in SE 8.0 mph 16.0 mph 55 % 0.00 in
14:46 80.1 °F 62.4 °F 29.93 in South 13.0 mph 16.0 mph 55 % 0.00 in
14:51 80.1 °F 62.4 °F 29.93 in SW 9.0 mph 15.0 mph 55 % 0.00 in
14:56 80.4 °F 62.8 °F 29.92 in SW 10.0 mph 20.0 mph 55 % 0.00 in
15:01 80.8 °F 62.6 °F 29.92 in SW 7.0 mph 20.0 mph 54 % 0.00 in
15:06 80.4 °F 62.2 °F 29.92 in SSW 7.0 mph 20.0 mph 54 % 0.00 in
15:11 81.0 °F 62.8 °F 29.92 in WSW 5.0 mph 17.0 mph 54 % 0.00 in
15:16 81.0 °F 63.3 °F 29.92 in SSW 6.0 mph 17.0 mph 55 % 0.00 in
15:22 81.1 °F 63.5 °F 29.92 in SSW 5.0 mph 17.0 mph 55 % 0.00 in
15:27 81.1 °F 62.4 °F 29.93 in South 7.0 mph 16.0 mph 53 % 0.00 in
15:32 80.4 °F 61.7 °F 29.93 in South 5.0 mph 12.0 mph 53 % 0.00 in
15:37 80.1 °F 62.4 °F 29.93 in SE 7.0 mph 13.0 mph 55 % 0.00 in
15:42 80.4 °F 62.8 °F 29.93 in SSE 5.0 mph 13.0 mph 55 % 0.00 in
15:47 80.4 °F 61.7 °F 29.93 in South 8.0 mph 16.0 mph 53 % 0.00 in
15:52 80.1 °F 61.9 °F 29.93 in SSE 5.0 mph 16.0 mph 54 % 0.00 in
15:57 80.1 °F 62.4 °F 29.93 in SSW 7.0 mph 16.0 mph 55 % 0.00 in
16:02 80.2 °F 62.1 °F 29.93 in SSW 8.0 mph 13.0 mph 54 % 0.00 in
16:07 80.4 °F 62.2 °F 29.94 in SSW 11.0 mph 14.0 mph 54 % 0.00 in
16:12 80.6 °F 63.0 °F 29.93 in SE 5.0 mph 14.0 mph 55 % 0.00 in
16:17 79.7 °F 62.6 °F 29.94 in SW 6.0 mph 14.0 mph 56 % 0.00 in
16:22 79.5 °F 63.0 °F 29.94 in SSW 9.0 mph 14.0 mph 57 % 0.00 in
16:27 79.3 °F 62.8 °F 29.94 in SSE 6.0 mph 14.0 mph 57 % 0.00 in
16:32 79.3 °F 62.8 °F 29.94 in South 7.0 mph 14.0 mph 57 % 0.00 in
16:37 79.0 °F 62.4 °F 29.94 in SSE 7.0 mph 12.0 mph 57 % 0.00 in
16:42 78.8 °F 62.2 °F 29.94 in SSW 6.0 mph 15.0 mph 57 % 0.00 in
16:47 79.0 °F 63.0 °F 29.94 in South 6.0 mph 15.0 mph 58 % 0.00 in
16:52 78.6 °F 62.6 °F 29.94 in SSE 5.0 mph 15.0 mph 58 % 0.00 in
16:57 78.4 °F 63.0 °F 29.95 in South 4.0 mph 12.0 mph 59 % 0.00 in
17:02 78.3 °F 63.3 °F 29.95 in South 4.0 mph 10.0 mph 60 % 0.00 in
17:07 78.1 °F 63.1 °F 29.95 in SSE 3.0 mph 10.0 mph 60 % 0.00 in
17:12 77.5 °F 63.0 °F 29.95 in SSE 8.0 mph 12.0 mph 61 % 0.00 in
17:17 77.2 °F 63.1 °F 29.95 in South 3.0 mph 14.0 mph 62 % 0.00 in
17:22 77.2 °F 63.1 °F 29.95 in SSE 4.0 mph 14.0 mph 62 % 0.00 in
17:27 76.8 °F 63.3 °F 29.95 in South 5.0 mph 14.0 mph 63 % 0.00 in
17:32 76.6 °F 63.1 °F 29.95 in South 6.0 mph 12.0 mph 63 % 0.00 in
17:37 76.3 °F 63.1 °F 29.95 in SSE 5.0 mph 10.0 mph 64 % 0.00 in
17:42 75.9 °F 62.8 °F 29.96 in SSE 4.0 mph 10.0 mph 64 % 0.00 in
17:47 75.7 °F 63.1 °F 29.96 in SSW 6.0 mph 11.0 mph 65 % 0.00 in
17:52 75.6 °F 63.3 °F 29.96 in SW 7.0 mph 11.0 mph 66 % 0.00 in
17:58 75.4 °F 63.7 °F 29.96 in South 4.0 mph 13.0 mph 67 % 0.00 in
18:03 75.0 °F 63.7 °F 29.96 in SSW 5.0 mph 13.0 mph 68 % 0.00 in
18:08 74.8 °F 64.0 °F 29.96 in South 7.0 mph 13.0 mph 69 % 0.00 in
18:13 74.7 °F 64.2 °F 29.96 in South 2.0 mph 12.0 mph 70 % 0.00 in
18:18 74.5 °F 64.0 °F 29.96 in South 4.0 mph 12.0 mph 70 % 0.00 in
18:23 74.1 °F 64.0 °F 29.96 in SSE 7.0 mph 9.0 mph 71 % 0.00 in
18:28 74.1 °F 64.0 °F 29.97 in SSW 4.0 mph 17.0 mph 71 % 0.00 in
18:33 73.9 °F 64.4 °F 29.97 in SSW 6.0 mph 17.0 mph 72 % 0.00 in
18:38 73.8 °F 64.2 °F 29.97 in SSW 4.0 mph 17.0 mph 72 % 0.00 in
18:43 73.6 °F 64.4 °F 29.98 in South 2.0 mph 11.0 mph 73 % 0.00 in
18:48 73.2 °F 64.4 °F 29.98 in SSE 2.0 mph 8.0 mph 74 % 0.00 in
18:53 72.9 °F 64.4 °F 29.98 in SSE 2.0 mph 8.0 mph 75 % 0.00 in
18:58 72.7 °F 65.1 °F 29.99 in SSE 4.0 mph 6.0 mph 77 % 0.00 in
19:03 72.5 °F 65.3 °F 29.99 in SE 4.0 mph 7.0 mph 78 % 0.00 in
19:08 72.3 °F 65.5 °F 29.99 in South 6.0 mph 10.0 mph 79 % 0.00 in
19:13 72.3 °F 65.5 °F 29.99 in South 5.0 mph 12.0 mph 79 % 0.00 in
19:18 72.1 °F 65.7 °F 29.99 in South 4.0 mph 12.0 mph 80 % 0.00 in
19:23 72.0 °F 65.5 °F 30.00 in SE 5.0 mph 12.0 mph 80 % 0.00 in
19:28 72.0 °F 65.8 °F 30.00 in SSW 6.0 mph 10.0 mph 81 % 0.00 in
19:33 71.8 °F 65.7 °F 30.00 in SSE 4.0 mph 10.0 mph 81 % 0.00 in
19:38 71.6 °F 65.8 °F 30.00 in SSE 5.0 mph 10.0 mph 82 % 0.00 in
19:43 71.4 °F 65.7 °F 30.01 in SE 3.0 mph 10.0 mph 82 % 0.00 in
19:48 71.2 °F 65.5 °F 30.01 in SSW 2.0 mph 10.0 mph 82 % 0.00 in
19:53 71.1 °F 65.7 °F 30.01 in South 4.0 mph 10.0 mph 83 % 0.00 in
19:58 70.9 °F 65.5 °F 30.01 in SSW 7.0 mph 12.0 mph 83 % 0.00 in
20:03 70.7 °F 65.7 °F 30.01 in SSE 7.0 mph 12.0 mph 84 % 0.00 in
20:08 70.5 °F 65.5 °F 30.02 in South 6.0 mph 12.0 mph 84 % 0.00 in
20:13 70.5 °F 65.8 °F 30.02 in South 6.0 mph 10.0 mph 85 % 0.00 in
20:19 70.3 °F 65.7 °F 30.02 in South 2.0 mph 11.0 mph 85 % 0.00 in
20:24 70.2 °F 65.8 °F 30.02 in South 4.0 mph 11.0 mph 86 % 0.00 in
20:29 70.2 °F 65.8 °F 30.02 in SSE 5.0 mph 11.0 mph 86 % 0.00 in
20:34 70.0 °F 65.7 °F 30.02 in South 4.0 mph 9.0 mph 86 % 0.00 in
20:39 70.0 °F 65.7 °F 30.02 in ESE 4.0 mph 9.0 mph 86 % 0.00 in
20:44 70.0 °F 65.7 °F 30.02 in SSW 7.0 mph 10.0 mph 86 % 0.00 in
20:49 69.8 °F 65.5 °F 30.02 in SSE 6.0 mph 14.0 mph 86 % 0.00 in
20:54 69.8 °F 65.8 °F 30.02 in SSE 6.0 mph 14.0 mph 87 % 0.00 in
20:59 69.6 °F 65.7 °F 30.02 in SSE 3.0 mph 14.0 mph 87 % 0.00 in
21:04 69.6 °F 65.7 °F 30.03 in SSE 2.0 mph 12.0 mph 87 % 0.00 in
21:09 69.4 °F 65.5 °F 30.03 in SSW 3.0 mph 12.0 mph 87 % 0.00 in
21:14 69.3 °F 65.3 °F 30.03 in SSE 2.0 mph 8.0 mph 87 % 0.00 in
21:19 69.3 °F 65.3 °F 30.03 in SSE 4.0 mph 8.0 mph 87 % 0.00 in
21:24 69.1 °F 65.3 °F 30.04 in SW 2.0 mph 7.0 mph 88 % 0.00 in
21:29 68.9 °F 65.1 °F 30.04 in SSE 2.0 mph 6.0 mph 88 % 0.00 in
21:34 68.9 °F 65.1 °F 30.04 in SSE 6.0 mph 6.0 mph 88 % 0.00 in
21:39 68.9 °F 65.1 °F 30.04 in SE 4.0 mph 7.0 mph 88 % 0.00 in
21:44 68.9 °F 65.1 °F 30.04 in SSE 4.0 mph 7.0 mph 88 % 0.00 in
21:49 68.7 °F 64.9 °F 30.04 in South 5.0 mph 7.0 mph 88 % 0.00 in
21:54 68.7 °F 64.9 °F 30.04 in SSE 4.0 mph 7.0 mph 88 % 0.00 in
21:59 68.7 °F 65.3 °F 30.04 in SSW 5.0 mph 8.0 mph 89 % 0.00 in
22:04 68.5 °F 65.1 °F 30.04 in SSE 3.0 mph 8.0 mph 89 % 0.00 in
22:09 68.5 °F 65.1 °F 30.04 in South 3.0 mph 8.0 mph 89 % 0.00 in
22:14 68.5 °F 65.1 °F 30.04 in SSW 2.0 mph 8.0 mph 89 % 0.00 in
22:20 68.5 °F 65.1 °F 30.05 in SSE 3.0 mph 5.0 mph 89 % 0.00 in
22:25 68.4 °F 64.9 °F 30.04 in SSW 1.0 mph 5.0 mph 89 % 0.00 in
22:30 68.4 °F 64.9 °F 30.05 in SSW 1.0 mph 5.0 mph 89 % 0.00 in
22:35 68.4 °F 64.9 °F 30.05 in SE 3.0 mph 5.0 mph 89 % 0.00 in
22:40 68.2 °F 65.1 °F 30.05 in South 6.0 mph 6.0 mph 90 % 0.00 in
22:45 68.2 °F 65.1 °F 30.05 in SE 2.0 mph 6.0 mph 90 % 0.00 in
22:50 68.4 °F 65.3 °F 30.05 in SE 4.0 mph 6.0 mph 90 % 0.00 in
22:55 68.4 °F 65.3 °F 30.05 in ESE 6.0 mph 6.0 mph 90 % 0.00 in
23:00 68.4 °F 65.3 °F 30.05 in South 3.0 mph 7.0 mph 90 % 0.00 in
23:05 68.4 °F 65.3 °F 30.05 in South 3.0 mph 7.0 mph 90 % 0.00 in
23:10 68.5 °F 65.5 °F 30.05 in SE 3.0 mph 7.0 mph 90 % 0.00 in
23:15 68.5 °F 65.5 °F 30.05 in SSE 2.0 mph 6.0 mph 90 % 0.00 in
23:20 68.5 °F 65.5 °F 30.05 in SSE 3.0 mph 6.0 mph 90 % 0.00 in
23:25 68.5 °F 65.5 °F 30.05 in SSW 3.0 mph 6.0 mph 90 % 0.00 in
23:30 68.5 °F 65.5 °F 30.05 in SSE 3.0 mph 5.0 mph 90 % 0.00 in
23:35 68.5 °F 65.5 °F 30.05 in South 4.0 mph 7.0 mph 90 % 0.00 in
23:36 68.5 °F 65.5 °F 30.05 in SW 1.0 mph 7.0 mph 90 % 0.00 in
23:41 68.5 °F 65.5 °F 30.05 in South 3.0 mph 7.0 mph 90 % 0.00 in
23:46 68.5 °F 65.5 °F 30.05 in SSE 2.0 mph 7.0 mph 90 % 0.00 in
23:51 68.4 °F 65.3 °F 30.05 in SSE 4.0 mph 7.0 mph 90 % 0.00 in
23:56 68.4 °F 65.3 °F 30.05 in SSE 3.0 mph 7.0 mph 90 % 0.00 in
Spring, Texas: Villages of Bridgestone
Compliments of Weather Underground - 2.75 mb

Script developed by  Jim McMurry - jmcmurry@mwt.net Adapted for the template by  Wim van der Kuil - Leuven-Template.eu

You find our weather info also at:

UK Metoffice

WeatherCloud

Weather Underground

Mid-South Weather Network

AWEKAS

Citizen Weather Observer Program (CWOP)

HAMweather, WeatherForYou, PWS Weather

Equipment we use:

Weather-station
Davis Vantage Vue

Weather-program
Meteohub

Weather-server
Debian 7.9 x86 (Guest)

Provider
DreamHost

Davis Vantage Vue

Meteohub

Debian 7.9 x86 (Guest)

DreamHost